Allamuchy Township, New Jersey
Current Conditions -  °F | °C
As of 7:53 AM on Friday 24 Oct 2014 (Local Time) from KSMQ Reporting Station
Overcast Overcast  
Wind Chill: 54°   Ceiling: 3000
Heat Index: 54°   Visibility: 10mi
Dew Point: 43°   Wind: 12mph
Humidity: 66%   Direction: 330°NNW
Pressure: 29.81"   Gusts: 22mph
Location:  40.8661°N, 74.8361°W
Report Text: KSMQ 241153Z AUTO 33010G19KT 10SM OVC030 12/06 A2981 RMK AO2 SLP096 70010 T01220061 10122 20106 53002
Loading
Personal Weather Stations






























Interactive Weather Map New forecast layout! Learn more

10-Day Weather Forecast

Advertisements
Track Severe Weather on mobile